sensor_id;sensor_type;location;lat;lon;timestamp;P1;durP1;ratioP1;P2;durP2;ratioP2
75810;SDS011;64449;50.016;19.954;2023-02-28T00:00:12;10.20;;;5.30;;
75810;SDS011;64449;50.016;19.954;2023-02-28T00:02:39;12.80;;;6.20;;
75810;SDS011;64449;50.016;19.954;2023-02-28T00:05:06;11.10;;;5.40;;
75810;SDS011;64449;50.016;19.954;2023-02-28T00:07:33;9.70;;;4.50;;
75810;SDS011;64449;50.016;19.954;2023-02-28T00:10:00;11.10;;;4.80;;
75810;SDS011;64449;50.016;19.954;2023-02-28T00:12:27;12.60;;;5.70;;
75810;SDS011;64449;50.016;19.954;2023-02-28T00:17:18;8.80;;;4.20;;
75810;SDS011;64449;50.016;19.954;2023-02-28T00:19:49;8.00;;;4.00;;
75810;SDS011;64449;50.016;19.954;2023-02-28T00:22:16;9.90;;;4.50;;
75810;SDS011;64449;50.016;19.954;2023-02-28T00:24:43;14.70;;;6.30;;
75810;SDS011;64449;50.016;19.954;2023-02-28T00:27:09;11.30;;;4.60;;
75810;SDS011;64449;50.016;19.954;2023-02-28T00:29:35;9.30;;;4.50;;
75810;SDS011;64449;50.016;19.954;2023-02-28T00:32:01;8.50;;;4.40;;
75810;SDS011;64449;50.016;19.954;2023-02-28T00:34:27;10.30;;;5.10;;
75810;SDS011;64449;50.016;19.954;2023-02-28T00:36:52;9.20;;;4.90;;
75810;SDS011;64449;50.016;19.954;2023-02-28T00:39:18;12.00;;;4.90;;
75810;SDS011;64449;50.016;19.954;2023-02-28T00:41:44;10.50;;;5.20;;
75810;SDS011;64449;50.016;19.954;2023-02-28T00:44:09;11.10;;;5.70;;
75810;SDS011;64449;50.016;19.954;2023-02-28T00:46:34;11.70;;;5.50;;
75810;SDS011;64449;50.016;19.954;2023-02-28T00:49:00;11.50;;;4.60;;
75810;SDS011;64449;50.016;19.954;2023-02-28T00:51:25;12.70;;;4.60;;
75810;SDS011;64449;50.016;19.954;2023-02-28T00:53:50;12.30;;;5.10;;
75810;SDS011;64449;50.016;19.954;2023-02-28T00:56:16;12.30;;;4.60;;
75810;SDS011;64449;50.016;19.954;2023-02-28T00:58:41;10.80;;;5.30;;
75810;SDS011;64449;50.016;19.954;2023-02-28T01:01:07;11.80;;;5.30;;
75810;SDS011;64449;50.016;19.954;2023-02-28T01:03:32;14.30;;;5.40;;
75810;SDS011;64449;50.016;19.954;2023-02-28T01:05:58;11.30;;;6.60;;
75810;SDS011;64449;50.016;19.954;2023-02-28T01:10:49;10.20;;;5.20;;
75810;SDS011;64449;50.016;19.954;2023-02-28T01:13:15;10.80;;;5.10;;
75810;SDS011;64449;50.016;19.954;2023-02-28T01:15:41;13.20;;;5.50;;
75810;SDS011;64449;50.016;19.954;2023-02-28T01:18:11;12.60;;;5.40;;
75810;SDS011;64449;50.016;19.954;2023-02-28T01:20:37;10.40;;;5.90;;
75810;SDS011;64449;50.016;19.954;2023-02-28T01:23:02;11.00;;;5.60;;
75810;SDS011;64449;50.016;19.954;2023-02-28T01:25:28;12.00;;;5.50;;
75810;SDS011;64449;50.016;19.954;2023-02-28T01:27:53;9.00;;;4.80;;
75810;SDS011;64449;50.016;19.954;2023-02-28T01:32:44;10.10;;;5.30;;
75810;SDS011;64449;50.016;19.954;2023-02-28T01:35:10;11.30;;;5.80;;
75810;SDS011;64449;50.016;19.954;2023-02-28T01:37:35;13.20;;;5.10;;
75810;SDS011;64449;50.016;19.954;2023-02-28T01:42:26;12.40;;;5.60;;
75810;SDS011;64449;50.016;19.954;2023-02-28T01:44:55;12.20;;;6.20;;
75810;SDS011;64449;50.016;19.954;2023-02-28T01:47:26;11.30;;;5.20;;
75810;SDS011;64449;50.016;19.954;2023-02-28T01:49:54;15.20;;;6.30;;
75810;SDS011;64449;50.016;19.954;2023-02-28T01:52:20;14.10;;;6.30;;
75810;SDS011;64449;50.016;19.954;2023-02-28T01:54:51;13.40;;;6.80;;
75810;SDS011;64449;50.016;19.954;2023-02-28T01:57:21;12.00;;;5.70;;
75810;SDS011;64449;50.016;19.954;2023-02-28T02:00:09;14.30;;;6.10;;
75810;SDS011;64449;50.016;19.954;2023-02-28T02:02:38;13.60;;;6.20;;
75810;SDS011;64449;50.016;19.954;2023-02-28T02:05:07;13.40;;;7.00;;
75810;SDS011;64449;50.016;19.954;2023-02-28T02:07:37;11.00;;;5.60;;
75810;SDS011;64449;50.016;19.954;2023-02-28T02:10:06;14.30;;;6.40;;
75810;SDS011;64449;50.016;19.954;2023-02-28T02:24:03;11.20;;;5.40;;
75810;SDS011;64449;50.016;19.954;2023-02-28T02:45:11;14.00;;;5.90;;
75810;SDS011;64449;50.016;19.954;2023-02-28T02:50:08;11.90;;;5.10;;
75810;SDS011;64449;50.016;19.954;2023-02-28T02:52:40;11.20;;;5.30;;
75810;SDS011;64449;50.016;19.954;2023-02-28T02:55:10;14.80;;;5.80;;
75810;SDS011;64449;50.016;19.954;2023-02-28T02:57:51;16.60;;;6.60;;
75810;SDS011;64449;50.016;19.954;2023-02-28T03:00:22;15.20;;;5.70;;
75810;SDS011;64449;50.016;19.954;2023-02-28T03:02:51;12.10;;;6.10;;
75810;SDS011;64449;50.016;19.954;2023-02-28T03:05:26;13.60;;;5.50;;
75810;SDS011;64449;50.016;19.954;2023-02-28T03:07:59;16.00;;;6.60;;
75810;SDS011;64449;50.016;19.954;2023-02-28T03:10:30;15.10;;;6.40;;
75810;SDS011;64449;50.016;19.954;2023-02-28T03:16:14;14.20;;;6.80;;
75810;SDS011;64449;50.016;19.954;2023-02-28T03:21:53;16.70;;;7.80;;
75810;SDS011;64449;50.016;19.954;2023-02-28T03:27:04;14.80;;;7.30;;
75810;SDS011;64449;50.016;19.954;2023-02-28T03:29:35;14.10;;;7.40;;
75810;SDS011;64449;50.016;19.954;2023-02-28T03:32:18;17.00;;;6.90;;
75810;SDS011;64449;50.016;19.954;2023-02-28T03:34:50;15.40;;;7.00;;
75810;SDS011;64449;50.016;19.954;2023-02-28T03:37:24;14.30;;;6.90;;
75810;SDS011;64449;50.016;19.954;2023-02-28T03:40:03;12.40;;;6.90;;
75810;SDS011;64449;50.016;19.954;2023-02-28T03:42:34;16.60;;;7.10;;
75810;SDS011;64449;50.016;19.954;2023-02-28T03:45:13;10.00;;;4.80;;
75810;SDS011;64449;50.016;19.954;2023-02-28T03:50:24;14.90;;;6.90;;
75810;SDS011;64449;50.016;19.954;2023-02-28T03:52:58;13.90;;;6.20;;
75810;SDS011;64449;50.016;19.954;2023-02-28T03:55:31;10.50;;;5.80;;
75810;SDS011;64449;50.016;19.954;2023-02-28T03:58:20;13.50;;;6.80;;
75810;SDS011;64449;50.016;19.954;2023-02-28T04:00:54;13.10;;;6.20;;
75810;SDS011;64449;50.016;19.954;2023-02-28T04:05:53;8.90;;;5.60;;
75810;SDS011;64449;50.016;19.954;2023-02-28T04:08:20;3.90;;;1.90;;
75810;SDS011;64449;50.016;19.954;2023-02-28T04:10:48;11.60;;;6.20;;
75810;SDS011;64449;50.016;19.954;2023-02-28T04:13:19;13.40;;;7.10;;
75810;SDS011;64449;50.016;19.954;2023-02-28T04:15:44;14.10;;;7.90;;
75810;SDS011;64449;50.016;19.954;2023-02-28T04:18:09;12.60;;;6.40;;
75810;SDS011;64449;50.016;19.954;2023-02-28T04:20:35;13.10;;;7.00;;
75810;SDS011;64449;50.016;19.954;2023-02-28T04:23:01;16.60;;;7.50;;
75810;SDS011;64449;50.016;19.954;2023-02-28T04:25:26;18.50;;;7.80;;
75810;SDS011;64449;50.016;19.954;2023-02-28T04:27:52;14.70;;;7.30;;
75810;SDS011;64449;50.016;19.954;2023-02-28T04:30:17;14.90;;;6.90;;
75810;SDS011;64449;50.016;19.954;2023-02-28T04:32:43;17.10;;;7.30;;
75810;SDS011;64449;50.016;19.954;2023-02-28T04:35:08;14.70;;;6.60;;
75810;SDS011;64449;50.016;19.954;2023-02-28T04:37:33;20.40;;;7.80;;
75810;SDS011;64449;50.016;19.954;2023-02-28T04:40:02;19.40;;;7.80;;
75810;SDS011;64449;50.016;19.954;2023-02-28T04:42:28;16.80;;;7.10;;
75810;SDS011;64449;50.016;19.954;2023-02-28T04:45:01;12.00;;;6.40;;
75810;SDS011;64449;50.016;19.954;2023-02-28T04:47:29;14.30;;;6.80;;
75810;SDS011;64449;50.016;19.954;2023-02-28T04:49:55;14.90;;;7.00;;
75810;SDS011;64449;50.016;19.954;2023-02-28T04:52:20;17.00;;;7.20;;
75810;SDS011;64449;50.016;19.954;2023-02-28T04:54:46;13.10;;;6.80;;
75810;SDS011;64449;50.016;19.954;2023-02-28T04:57:11;11.70;;;5.90;;
75810;SDS011;64449;50.016;19.954;2023-02-28T04:59:36;12.80;;;6.90;;
75810;SDS011;64449;50.016;19.954;2023-02-28T05:02:02;12.80;;;7.70;;
75810;SDS011;64449;50.016;19.954;2023-02-28T05:04:34;13.40;;;6.80;;
75810;SDS011;64449;50.016;19.954;2023-02-28T05:07:01;14.60;;;8.30;;
75810;SDS011;64449;50.016;19.954;2023-02-28T05:09:28;17.70;;;7.00;;
75810;SDS011;64449;50.016;19.954;2023-02-28T05:11:54;16.80;;;8.00;;
75810;SDS011;64449;50.016;19.954;2023-02-28T05:14:20;11.30;;;6.40;;
75810;SDS011;64449;50.016;19.954;2023-02-28T05:16:46;15.30;;;8.70;;
75810;SDS011;64449;50.016;19.954;2023-02-28T05:19:11;18.00;;;8.30;;
75810;SDS011;64449;50.016;19.954;2023-02-28T05:21:38;15.20;;;8.00;;
75810;SDS011;64449;50.016;19.954;2023-02-28T05:24:13;14.90;;;7.40;;
75810;SDS011;64449;50.016;19.954;2023-02-28T05:26:39;20.90;;;10.20;;
75810;SDS011;64449;50.016;19.954;2023-02-28T05:29:07;21.30;;;10.30;;
75810;SDS011;64449;50.016;19.954;2023-02-28T05:31:33;22.00;;;9.50;;
75810;SDS011;64449;50.016;19.954;2023-02-28T05:33:59;21.50;;;9.40;;
75810;SDS011;64449;50.016;19.954;2023-02-28T05:38:50;16.40;;;8.10;;
75810;SDS011;64449;50.016;19.954;2023-02-28T05:41:17;20.80;;;9.30;;
75810;SDS011;64449;50.016;19.954;2023-02-28T05:43:44;19.60;;;8.90;;
75810;SDS011;64449;50.016;19.954;2023-02-28T05:46:10;17.60;;;8.90;;
75810;SDS011;64449;50.016;19.954;2023-02-28T05:48:38;15.70;;;8.90;;
75810;SDS011;64449;50.016;19.954;2023-02-28T05:51:05;17.90;;;8.10;;
75810;SDS011;64449;50.016;19.954;2023-02-28T05:53:32;16.70;;;9.00;;
75810;SDS011;64449;50.016;19.954;2023-02-28T05:55:58;19.00;;;9.30;;
75810;SDS011;64449;50.016;19.954;2023-02-28T05:58:24;19.60;;;9.40;;
75810;SDS011;64449;50.016;19.954;2023-02-28T06:03:24;15.00;;;7.50;;
75810;SDS011;64449;50.016;19.954;2023-02-28T06:05:51;20.20;;;9.00;;
75810;SDS011;64449;50.016;19.954;2023-02-28T06:08:16;27.70;;;9.80;;
75810;SDS011;64449;50.016;19.954;2023-02-28T06:10:42;19.00;;;8.90;;
75810;SDS011;64449;50.016;19.954;2023-02-28T06:13:07;24.90;;;10.60;;
75810;SDS011;64449;50.016;19.954;2023-02-28T06:15:33;18.90;;;9.10;;
75810;SDS011;64449;50.016;19.954;2023-02-28T06:17:58;19.00;;;7.90;;
75810;SDS011;64449;50.016;19.954;2023-02-28T06:20:25;16.30;;;8.80;;
75810;SDS011;64449;50.016;19.954;2023-02-28T06:22:54;19.90;;;8.60;;
75810;SDS011;64449;50.016;19.954;2023-02-28T06:25:23;19.40;;;8.30;;
75810;SDS011;64449;50.016;19.954;2023-02-28T06:27:48;16.40;;;7.80;;
75810;SDS011;64449;50.016;19.954;2023-02-28T06:32:39;11.50;;;6.20;;
75810;SDS011;64449;50.016;19.954;2023-02-28T06:35:05;15.90;;;8.90;;
75810;SDS011;64449;50.016;19.954;2023-02-28T06:37:31;13.50;;;6.70;;
75810;SDS011;64449;50.016;19.954;2023-02-28T06:39:57;16.30;;;7.20;;
75810;SDS011;64449;50.016;19.954;2023-02-28T06:42:23;12.40;;;6.80;;
75810;SDS011;64449;50.016;19.954;2023-02-28T06:44:53;15.70;;;7.80;;
75810;SDS011;64449;50.016;19.954;2023-02-28T06:47:20;15.70;;;9.30;;
75810;SDS011;64449;50.016;19.954;2023-02-28T06:52:10;16.90;;;7.60;;
75810;SDS011;64449;50.016;19.954;2023-02-28T06:54:36;17.90;;;8.80;;
75810;SDS011;64449;50.016;19.954;2023-02-28T06:57:02;19.30;;;8.60;;
75810;SDS011;64449;50.016;19.954;2023-02-28T06:59:28;17.80;;;8.40;;
75810;SDS011;64449;50.016;19.954;2023-02-28T07:01:53;14.90;;;7.40;;
75810;SDS011;64449;50.016;19.954;2023-02-28T07:04:20;12.40;;;6.20;;
75810;SDS011;64449;50.016;19.954;2023-02-28T07:06:46;17.70;;;7.40;;
75810;SDS011;64449;50.016;19.954;2023-02-28T07:09:11;13.60;;;7.30;;
75810;SDS011;64449;50.016;19.954;2023-02-28T07:11:37;12.30;;;5.70;;
75810;SDS011;64449;50.016;19.954;2023-02-28T07:14:02;19.90;;;9.00;;
75810;SDS011;64449;50.016;19.954;2023-02-28T07:16:27;16.90;;;7.90;;
75810;SDS011;64449;50.016;19.954;2023-02-28T07:18:53;16.70;;;6.60;;
75810;SDS011;64449;50.016;19.954;2023-02-28T07:21:19;18.10;;;7.40;;
75810;SDS011;64449;50.016;19.954;2023-02-28T07:23:44;14.80;;;6.90;;
75810;SDS011;64449;50.016;19.954;2023-02-28T07:26:14;17.80;;;7.00;;
75810;SDS011;64449;50.016;19.954;2023-02-28T07:31:07;13.20;;;6.00;;
75810;SDS011;64449;50.016;19.954;2023-02-28T07:33:34;17.00;;;7.40;;
75810;SDS011;64449;50.016;19.954;2023-02-28T07:36:04;14.60;;;7.50;;
75810;SDS011;64449;50.016;19.954;2023-02-28T07:38:33;12.90;;;7.20;;
75810;SDS011;64449;50.016;19.954;2023-02-28T07:41:01;16.90;;;7.60;;
75810;SDS011;64449;50.016;19.954;2023-02-28T07:43:31;13.80;;;6.90;;
75810;SDS011;64449;50.016;19.954;2023-02-28T07:46:07;17.80;;;8.00;;
75810;SDS011;64449;50.016;19.954;2023-02-28T07:48:34;15.60;;;6.80;;
75810;SDS011;64449;50.016;19.954;2023-02-28T07:51:00;12.80;;;6.40;;
75810;SDS011;64449;50.016;19.954;2023-02-28T07:53:26;12.10;;;6.40;;
75810;SDS011;64449;50.016;19.954;2023-02-28T07:55:58;15.10;;;7.80;;
75810;SDS011;64449;50.016;19.954;2023-02-28T07:58:26;16.60;;;7.60;;
75810;SDS011;64449;50.016;19.954;2023-02-28T08:00:53;14.30;;;6.40;;
75810;SDS011;64449;50.016;19.954;2023-02-28T08:03:18;13.40;;;7.20;;
75810;SDS011;64449;50.016;19.954;2023-02-28T08:05:46;11.70;;;6.00;;
75810;SDS011;64449;50.016;19.954;2023-02-28T08:08:13;10.00;;;5.50;;
75810;SDS011;64449;50.016;19.954;2023-02-28T08:10:39;9.40;;;5.40;;
75810;SDS011;64449;50.016;19.954;2023-02-28T08:13:05;10.70;;;4.60;;
75810;SDS011;64449;50.016;19.954;2023-02-28T08:17:56;11.00;;;6.00;;
75810;SDS011;64449;50.016;19.954;2023-02-28T08:20:22;10.30;;;4.90;;
75810;SDS011;64449;50.016;19.954;2023-02-28T08:22:49;11.60;;;5.70;;
75810;SDS011;64449;50.016;19.954;2023-02-28T08:25:14;10.00;;;6.10;;
75810;SDS011;64449;50.016;19.954;2023-02-28T08:27:40;13.20;;;6.20;;
75810;SDS011;64449;50.016;19.954;2023-02-28T08:32:32;8.30;;;4.10;;
75810;SDS011;64449;50.016;19.954;2023-02-28T08:34:58;8.60;;;4.10;;
75810;SDS011;64449;50.016;19.954;2023-02-28T08:37:24;8.90;;;3.90;;
75810;SDS011;64449;50.016;19.954;2023-02-28T08:39:50;8.30;;;5.00;;
75810;SDS011;64449;50.016;19.954;2023-02-28T08:42:15;10.20;;;5.50;;
75810;SDS011;64449;50.016;19.954;2023-02-28T08:47:06;8.00;;;4.00;;
75810;SDS011;64449;50.016;19.954;2023-02-28T08:51:57;8.20;;;4.30;;
75810;SDS011;64449;50.016;19.954;2023-02-28T08:54:22;9.50;;;4.10;;
75810;SDS011;64449;50.016;19.954;2023-02-28T08:56:48;8.80;;;4.00;;
75810;SDS011;64449;50.016;19.954;2023-02-28T08:59:14;8.90;;;4.70;;
75810;SDS011;64449;50.016;19.954;2023-02-28T09:01:40;9.40;;;4.80;;
75810;SDS011;64449;50.016;19.954;2023-02-28T09:04:09;11.20;;;5.50;;
75810;SDS011;64449;50.016;19.954;2023-02-28T09:06:36;10.90;;;5.70;;
75810;SDS011;64449;50.016;19.954;2023-02-28T09:09:02;9.80;;;5.10;;
75810;SDS011;64449;50.016;19.954;2023-02-28T09:11:30;7.40;;;4.10;;
75810;SDS011;64449;50.016;19.954;2023-02-28T09:13:57;8.80;;;4.90;;
75810;SDS011;64449;50.016;19.954;2023-02-28T09:16:24;17.10;;;5.70;;
75810;SDS011;64449;50.016;19.954;2023-02-28T09:18:49;7.00;;;4.00;;
75810;SDS011;64449;50.016;19.954;2023-02-28T09:21:15;7.70;;;3.90;;
75810;SDS011;64449;50.016;19.954;2023-02-28T09:23:43;5.50;;;3.30;;
75810;SDS011;64449;50.016;19.954;2023-02-28T09:26:43;7.00;;;3.60;;
75810;SDS011;64449;50.016;19.954;2023-02-28T09:29:02;5.70;;;3.10;;
75810;SDS011;64449;50.016;19.954;2023-02-28T09:31:28;5.80;;;2.70;;
75810;SDS011;64449;50.016;19.954;2023-02-28T09:33:55;6.10;;;3.70;;
75810;SDS011;64449;50.016;19.954;2023-02-28T09:36:22;6.90;;;3.50;;
75810;SDS011;64449;50.016;19.954;2023-02-28T09:38:49;6.40;;;3.40;;
75810;SDS011;64449;50.016;19.954;2023-02-28T09:41:20;7.30;;;3.60;;
75810;SDS011;64449;50.016;19.954;2023-02-28T09:43:58;5.70;;;3.50;;
75810;SDS011;64449;50.016;19.954;2023-02-28T09:49:45;6.00;;;3.60;;
75810;SDS011;64449;50.016;19.954;2023-02-28T09:52:19;9.40;;;4.30;;
75810;SDS011;64449;50.016;19.954;2023-02-28T09:57:37;9.20;;;3.90;;
75810;SDS011;64449;50.016;19.954;2023-02-28T10:05:27;4.50;;;3.10;;
75810;SDS011;64449;50.016;19.954;2023-02-28T10:13:13;6.50;;;3.80;;
75810;SDS011;64449;50.016;19.954;2023-02-28T10:15:46;5.30;;;3.20;;
75810;SDS011;64449;50.016;19.954;2023-02-28T10:18:16;7.30;;;4.10;;
75810;SDS011;64449;50.016;19.954;2023-02-28T10:20:48;7.80;;;4.40;;
75810;SDS011;64449;50.016;19.954;2023-02-28T10:23:21;7.00;;;3.80;;
75810;SDS011;64449;50.016;19.954;2023-02-28T10:25:55;6.20;;;4.00;;
75810;SDS011;64449;50.016;19.954;2023-02-28T10:28:24;6.70;;;3.80;;
75810;SDS011;64449;50.016;19.954;2023-02-28T10:30:52;10.20;;;4.60;;
75810;SDS011;64449;50.016;19.954;2023-02-28T10:33:29;6.90;;;4.60;;
75810;SDS011;64449;50.016;19.954;2023-02-28T10:35:56;6.40;;;4.10;;
75810;SDS011;64449;50.016;19.954;2023-02-28T10:38:24;6.50;;;4.40;;
75810;SDS011;64449;50.016;19.954;2023-02-28T10:41:02;6.90;;;4.70;;
75810;SDS011;64449;50.016;19.954;2023-02-28T10:43:30;6.60;;;4.00;;
75810;SDS011;64449;50.016;19.954;2023-02-28T10:46:01;6.80;;;4.10;;
75810;SDS011;64449;50.016;19.954;2023-02-28T10:48:29;6.40;;;4.00;;
75810;SDS011;64449;50.016;19.954;2023-02-28T10:50:57;7.60;;;4.70;;
75810;SDS011;64449;50.016;19.954;2023-02-28T10:56:09;5.80;;;4.00;;
75810;SDS011;64449;50.016;19.954;2023-02-28T11:03:55;6.10;;;4.20;;
75810;SDS011;64449;50.016;19.954;2023-02-28T11:06:23;6.00;;;3.90;;
75810;SDS011;64449;50.016;19.954;2023-02-28T11:08:53;6.20;;;4.10;;
75810;SDS011;64449;50.016;19.954;2023-02-28T11:11:24;7.80;;;4.50;;
75810;SDS011;64449;50.016;19.954;2023-02-28T11:13:52;6.60;;;5.00;;
75810;SDS011;64449;50.016;19.954;2023-02-28T11:16:20;7.30;;;4.20;;
75810;SDS011;64449;50.016;19.954;2023-02-28T11:18:50;8.10;;;4.40;;
75810;SDS011;64449;50.016;19.954;2023-02-28T11:21:20;6.70;;;4.30;;
75810;SDS011;64449;50.016;19.954;2023-02-28T11:23:49;6.50;;;4.50;;
75810;SDS011;64449;50.016;19.954;2023-02-28T11:26:36;5.20;;;4.10;;
75810;SDS011;64449;50.016;19.954;2023-02-28T11:29:11;6.40;;;3.90;;
75810;SDS011;64449;50.016;19.954;2023-02-28T11:31:41;7.70;;;6.20;;
75810;SDS011;64449;50.016;19.954;2023-02-28T11:34:25;8.90;;;4.90;;
75810;SDS011;64449;50.016;19.954;2023-02-28T11:36:53;10.70;;;5.10;;
75810;SDS011;64449;50.016;19.954;2023-02-28T11:39:19;6.60;;;4.80;;
75810;SDS011;64449;50.016;19.954;2023-02-28T11:50:02;6.20;;;4.00;;
75810;SDS011;64449;50.016;19.954;2023-02-28T11:55:17;5.30;;;4.00;;
75810;SDS011;64449;50.016;19.954;2023-02-28T11:57:57;6.70;;;4.40;;
75810;SDS011;64449;50.016;19.954;2023-02-28T12:03:18;7.60;;;4.60;;
75810;SDS011;64449;50.016;19.954;2023-02-28T12:20:35;5.40;;;4.00;;
75810;SDS011;64449;50.016;19.954;2023-02-28T12:28:34;4.90;;;3.80;;
75810;SDS011;64449;50.016;19.954;2023-02-28T12:31:04;5.30;;;3.20;;
75810;SDS011;64449;50.016;19.954;2023-02-28T12:33:37;7.40;;;4.90;;
75810;SDS011;64449;50.016;19.954;2023-02-28T12:36:13;6.90;;;4.60;;
75810;SDS011;64449;50.016;19.954;2023-02-28T12:38:53;6.30;;;4.10;;
75810;SDS011;64449;50.016;19.954;2023-02-28T12:47:15;4.60;;;3.30;;
75810;SDS011;64449;50.016;19.954;2023-02-28T12:52:14;5.80;;;3.40;;
75810;SDS011;64449;50.016;19.954;2023-02-28T13:00:18;6.60;;;4.00;;
75810;SDS011;64449;50.016;19.954;2023-02-28T13:05:39;13.50;;;4.90;;
75810;SDS011;64449;50.016;19.954;2023-02-28T13:08:18;6.80;;;3.90;;
75810;SDS011;64449;50.016;19.954;2023-02-28T13:10:53;6.40;;;4.70;;
75810;SDS011;64449;50.016;19.954;2023-02-28T13:13:25;7.10;;;4.20;;
75810;SDS011;64449;50.016;19.954;2023-02-28T13:15:59;10.30;;;4.20;;
75810;SDS011;64449;50.016;19.954;2023-02-28T13:18:31;6.10;;;4.20;;
75810;SDS011;64449;50.016;19.954;2023-02-28T13:20:57;7.20;;;4.20;;
75810;SDS011;64449;50.016;19.954;2023-02-28T13:23:41;7.90;;;4.50;;
75810;SDS011;64449;50.016;19.954;2023-02-28T13:26:24;7.00;;;4.10;;
75810;SDS011;64449;50.016;19.954;2023-02-28T13:34:31;11.50;;;4.90;;
75810;SDS011;64449;50.016;19.954;2023-02-28T13:39:56;6.70;;;4.60;;
75810;SDS011;64449;50.016;19.954;2023-02-28T13:47:31;7.30;;;4.20;;
75810;SDS011;64449;50.016;19.954;2023-02-28T13:58:02;8.10;;;4.30;;
75810;SDS011;64449;50.016;19.954;2023-02-28T14:06:23;8.20;;;4.70;;
75810;SDS011;64449;50.016;19.954;2023-02-28T14:11:39;9.50;;;5.50;;
75810;SDS011;64449;50.016;19.954;2023-02-28T14:14:07;8.90;;;5.60;;
75810;SDS011;64449;50.016;19.954;2023-02-28T14:16:36;8.90;;;5.60;;
75810;SDS011;64449;50.016;19.954;2023-02-28T14:19:22;9.50;;;6.00;;
75810;SDS011;64449;50.016;19.954;2023-02-28T14:38:51;8.50;;;4.90;;
75810;SDS011;64449;50.016;19.954;2023-02-28T14:43:56;8.00;;;4.50;;
75810;SDS011;64449;50.016;19.954;2023-02-28T14:46:28;6.90;;;4.40;;
75810;SDS011;64449;50.016;19.954;2023-02-28T14:49:00;7.20;;;4.60;;
75810;SDS011;64449;50.016;19.954;2023-02-28T14:54:21;6.90;;;4.40;;
75810;SDS011;64449;50.016;19.954;2023-02-28T14:56:49;10.10;;;5.70;;
75810;SDS011;64449;50.016;19.954;2023-02-28T15:10:26;8.10;;;4.70;;
75810;SDS011;64449;50.016;19.954;2023-02-28T15:12:59;8.70;;;5.10;;
75810;SDS011;64449;50.016;19.954;2023-02-28T15:15:32;9.20;;;5.60;;
75810;SDS011;64449;50.016;19.954;2023-02-28T15:18:07;9.70;;;5.00;;
75810;SDS011;64449;50.016;19.954;2023-02-28T15:23:28;8.70;;;4.40;;
75810;SDS011;64449;50.016;19.954;2023-02-28T15:28:43;9.70;;;5.10;;
75810;SDS011;64449;50.016;19.954;2023-02-28T15:59:26;8.90;;;5.50;;
75810;SDS011;64449;50.016;19.954;2023-02-28T16:10:17;11.40;;;5.60;;
75810;SDS011;64449;50.016;19.954;2023-02-28T16:12:43;12.80;;;5.60;;
75810;SDS011;64449;50.016;19.954;2023-02-28T16:15:18;9.10;;;5.40;;
75810;SDS011;64449;50.016;19.954;2023-02-28T16:17:46;10.20;;;5.00;;
75810;SDS011;64449;50.016;19.954;2023-02-28T16:20:33;8.70;;;4.60;;
75810;SDS011;64449;50.016;19.954;2023-02-28T16:22:57;12.90;;;6.90;;
75810;SDS011;64449;50.016;19.954;2023-02-28T16:25:39;14.40;;;7.60;;
75810;SDS011;64449;50.016;19.954;2023-02-28T16:28:20;18.10;;;11.30;;
75810;SDS011;64449;50.016;19.954;2023-02-28T16:30:51;13.80;;;7.80;;
75810;SDS011;64449;50.016;19.954;2023-02-28T16:33:17;11.40;;;6.50;;
75810;SDS011;64449;50.016;19.954;2023-02-28T16:35:42;15.20;;;8.00;;
75810;SDS011;64449;50.016;19.954;2023-02-28T16:38:08;11.00;;;6.60;;
75810;SDS011;64449;50.016;19.954;2023-02-28T16:40:34;9.30;;;6.40;;
75810;SDS011;64449;50.016;19.954;2023-02-28T16:43:01;10.40;;;5.50;;
75810;SDS011;64449;50.016;19.954;2023-02-28T16:45:32;8.40;;;4.80;;
75810;SDS011;64449;50.016;19.954;2023-02-28T16:47:58;11.60;;;5.80;;
75810;SDS011;64449;50.016;19.954;2023-02-28T16:50:28;13.00;;;5.70;;
75810;SDS011;64449;50.016;19.954;2023-02-28T16:52:55;9.50;;;5.00;;
75810;SDS011;64449;50.016;19.954;2023-02-28T16:55:22;10.60;;;5.00;;
75810;SDS011;64449;50.016;19.954;2023-02-28T16:57:56;11.60;;;5.50;;
75810;SDS011;64449;50.016;19.954;2023-02-28T17:00:24;6.90;;;4.20;;
75810;SDS011;64449;50.016;19.954;2023-02-28T17:02:52;9.60;;;5.10;;
75810;SDS011;64449;50.016;19.954;2023-02-28T17:05:18;11.00;;;5.60;;
75810;SDS011;64449;50.016;19.954;2023-02-28T17:07:44;10.60;;;5.60;;
75810;SDS011;64449;50.016;19.954;2023-02-28T17:10:13;9.20;;;6.50;;
75810;SDS011;64449;50.016;19.954;2023-02-28T17:12:44;11.50;;;5.80;;
75810;SDS011;64449;50.016;19.954;2023-02-28T17:15:11;11.60;;;5.50;;
75810;SDS011;64449;50.016;19.954;2023-02-28T17:17:39;13.40;;;6.80;;
75810;SDS011;64449;50.016;19.954;2023-02-28T17:20:06;12.30;;;6.50;;
75810;SDS011;64449;50.016;19.954;2023-02-28T17:22:36;11.50;;;5.40;;
75810;SDS011;64449;50.016;19.954;2023-02-28T17:25:01;9.60;;;5.60;;
75810;SDS011;64449;50.016;19.954;2023-02-28T17:27:27;9.10;;;5.00;;
75810;SDS011;64449;50.016;19.954;2023-02-28T17:29:52;11.00;;;5.90;;
75810;SDS011;64449;50.016;19.954;2023-02-28T17:34:44;9.50;;;5.10;;
75810;SDS011;64449;50.016;19.954;2023-02-28T17:37:10;11.10;;;6.20;;
75810;SDS011;64449;50.016;19.954;2023-02-28T17:39:36;10.40;;;5.80;;
75810;SDS011;64449;50.016;19.954;2023-02-28T17:42:01;11.20;;;6.60;;
75810;SDS011;64449;50.016;19.954;2023-02-28T17:44:27;12.70;;;6.00;;
75810;SDS011;64449;50.016;19.954;2023-02-28T17:49:18;11.30;;;5.10;;
75810;SDS011;64449;50.016;19.954;2023-02-28T17:51:44;10.10;;;5.30;;
75810;SDS011;64449;50.016;19.954;2023-02-28T17:54:11;11.60;;;5.20;;
75810;SDS011;64449;50.016;19.954;2023-02-28T17:56:37;11.50;;;5.90;;
75810;SDS011;64449;50.016;19.954;2023-02-28T18:01:28;14.10;;;5.50;;
75810;SDS011;64449;50.016;19.954;2023-02-28T18:03:54;11.60;;;6.30;;
75810;SDS011;64449;50.016;19.954;2023-02-28T18:06:23;12.10;;;6.50;;
75810;SDS011;64449;50.016;19.954;2023-02-28T18:08:52;12.00;;;6.70;;
75810;SDS011;64449;50.016;19.954;2023-02-28T18:11:19;13.80;;;6.40;;
75810;SDS011;64449;50.016;19.954;2023-02-28T18:13:47;12.70;;;6.40;;
75810;SDS011;64449;50.016;19.954;2023-02-28T18:16:14;15.00;;;7.30;;
75810;SDS011;64449;50.016;19.954;2023-02-28T18:18:40;17.50;;;7.40;;
75810;SDS011;64449;50.016;19.954;2023-02-28T18:21:07;13.60;;;6.60;;
75810;SDS011;64449;50.016;19.954;2023-02-28T18:23:33;11.00;;;6.50;;
75810;SDS011;64449;50.016;19.954;2023-02-28T18:25:59;14.60;;;7.50;;
75810;SDS011;64449;50.016;19.954;2023-02-28T18:28:25;13.60;;;6.30;;
75810;SDS011;64449;50.016;19.954;2023-02-28T18:33:16;14.30;;;7.00;;
75810;SDS011;64449;50.016;19.954;2023-02-28T18:35:41;13.40;;;6.90;;
75810;SDS011;64449;50.016;19.954;2023-02-28T18:38:15;14.50;;;7.10;;
75810;SDS011;64449;50.016;19.954;2023-02-28T18:40:52;16.30;;;7.30;;
75810;SDS011;64449;50.016;19.954;2023-02-28T18:43:20;16.30;;;8.50;;
75810;SDS011;64449;50.016;19.954;2023-02-28T18:48:11;12.20;;;6.30;;
75810;SDS011;64449;50.016;19.954;2023-02-28T18:50:38;15.70;;;7.60;;
75810;SDS011;64449;50.016;19.954;2023-02-28T18:53:05;15.30;;;8.10;;
75810;SDS011;64449;50.016;19.954;2023-02-28T18:57:57;11.00;;;5.70;;
75810;SDS011;64449;50.016;19.954;2023-02-28T19:00:22;12.70;;;6.60;;
75810;SDS011;64449;50.016;19.954;2023-02-28T19:02:50;15.60;;;6.70;;
75810;SDS011;64449;50.016;19.954;2023-02-28T19:05:16;14.20;;;6.10;;
75810;SDS011;64449;50.016;19.954;2023-02-28T19:07:43;14.50;;;6.40;;